createdAt,value
2018-12-09T00:01:23.594Z,96215.36
2018-12-09T00:03:51.172Z,96195.52
2018-12-09T00:06:18.724Z,96196.01
2018-12-09T00:08:46.293Z,96183.09
2018-12-09T00:11:13.830Z,96186.92
2018-12-09T00:13:41.358Z,96169.12
2018-12-09T00:16:08.953Z,96165.08
2018-12-09T00:18:36.566Z,96153.20
2018-12-09T00:21:04.252Z,96151.66
2018-12-09T00:23:31.841Z,96152.20
2018-12-09T00:25:59.400Z,96152.58
2018-12-09T00:28:26.973Z,96151.33
2018-12-09T00:30:54.541Z,96126.30
2018-12-09T00:33:22.093Z,96113.31
2018-12-09T00:35:49.649Z,96097.59
2018-12-09T00:38:17.211Z,96105.97
2018-12-09T00:40:44.778Z,96096.17
2018-12-09T00:43:12.332Z,96088.66
2018-12-09T00:45:39.926Z,96080.06
2018-12-09T00:48:07.461Z,96094.24
2018-12-09T00:50:35.033Z,96087.11
2018-12-09T00:53:02.603Z,96073.34
2018-12-09T00:55:30.135Z,96067.30
2018-12-09T00:57:57.664Z,96050.43
2018-12-09T01:00:25.214Z,96020.53
2018-12-09T01:02:52.793Z,96040.16
2018-12-09T01:05:20.329Z,96061.59
2018-12-09T01:07:47.885Z,96044.74
2018-12-09T01:10:15.463Z,96033.02
2018-12-09T01:12:43.052Z,96031.96
2018-12-09T01:15:10.549Z,96039.45
2018-12-09T01:17:38.101Z,96022.72
2018-12-09T01:20:06.939Z,96041.16
2018-12-09T01:22:34.732Z,96047.30
2018-12-09T01:25:02.265Z,96043.33
2018-12-09T01:27:29.800Z,96039.66
2018-12-09T01:29:57.390Z,96033.66
2018-12-09T01:32:25.221Z,96044.30
2018-12-09T01:34:52.790Z,96025.23
2018-12-09T01:37:20.352Z,96014.05
2018-12-09T01:39:48.310Z,96012.96
2018-12-09T01:42:15.880Z,96009.05
2018-12-09T01:44:43.478Z,95968.70
2018-12-09T01:47:11.026Z,95995.77
2018-12-09T01:49:38.593Z,95991.68
2018-12-09T01:52:06.472Z,95980.20
2018-12-09T01:54:33.970Z,95978.23
2018-12-09T01:57:01.629Z,95960.03
2018-12-09T01:59:29.238Z,95958.36
2018-12-09T02:01:56.791Z,95971.22
2018-12-09T02:04:24.347Z,95973.72
2018-12-09T02:06:51.933Z,95754.77
2018-12-09T02:09:19.497Z,95965.33
2018-12-09T02:11:47.005Z,95970.51
2018-12-09T02:14:14.562Z,95974.34
2018-12-09T02:16:42.143Z,95954.47
2018-12-09T02:19:14.708Z,95949.46
2018-12-09T02:21:42.979Z,95931.63
2018-12-09T02:24:10.591Z,95943.14
2018-12-09T02:26:38.134Z,95931.30
2018-12-09T02:29:05.694Z,95911.75
2018-12-09T02:31:33.273Z,95920.59
2018-12-09T02:34:00.889Z,95933.20
2018-12-09T02:36:28.433Z,95931.23
2018-12-09T02:38:56.043Z,95919.50
2018-12-09T02:41:23.631Z,95930.47
2018-12-09T02:43:51.258Z,95932.02
2018-12-09T02:46:18.919Z,95923.64
2018-12-09T02:48:46.799Z,95903.60
2018-12-09T02:51:14.362Z,95903.45
2018-12-09T02:53:41.919Z,95903.45
2018-12-09T02:56:09.485Z,95899.61
2018-12-09T02:58:37.025Z,95905.48
2018-12-09T03:01:05.004Z,95898.81
2018-12-09T03:03:32.526Z,95895.25
2018-12-09T03:06:00.130Z,95894.53
2018-12-09T03:08:27.676Z,95904.25
2018-12-09T03:10:55.262Z,95890.55
2018-12-09T03:13:22.813Z,95895.72
2018-12-09T03:15:50.378Z,95882.93
2018-12-09T03:18:17.903Z,95887.34
2018-12-09T03:20:45.465Z,95891.93
2018-12-09T03:23:13.034Z,95882.55
2018-12-09T03:25:40.575Z,95899.30
2018-12-09T03:28:08.158Z,95894.82
2018-12-09T03:30:35.756Z,95907.27
2018-12-09T03:33:03.356Z,95920.30
2018-12-09T03:35:30.973Z,95911.83
2018-12-09T03:37:58.509Z,95905.25
2018-12-09T03:40:26.030Z,95901.11
2018-12-09T03:42:53.600Z,95908.69
2018-12-09T03:45:21.159Z,95902.49
2018-12-09T03:47:48.743Z,95916.13
2018-12-09T03:50:16.321Z,95890.44
2018-12-09T03:52:43.875Z,95903.34
2018-12-09T03:55:11.428Z,95900.14
2018-12-09T03:57:38.959Z,95910.05
2018-12-09T04:00:07.222Z,95908.61
2018-12-09T04:02:34.896Z,95905.11
2018-12-09T04:05:02.462Z,95903.36
2018-12-09T04:07:30.028Z,95904.00
2018-12-09T04:09:57.593Z,95892.50
2018-12-09T04:12:25.180Z,95892.59
2018-12-09T04:14:52.750Z,95900.45
2018-12-09T04:17:20.312Z,95879.12
2018-12-09T04:19:47.892Z,95878.32
2018-12-09T04:22:15.472Z,95897.28
2018-12-09T04:24:43.011Z,95873.45
2018-12-09T04:27:10.568Z,95910.14
2018-12-09T04:29:38.204Z,95883.81
2018-12-09T04:32:05.766Z,95840.82
2018-12-09T04:34:33.365Z,95829.78
2018-12-09T04:37:00.942Z,95831.27
2018-12-09T04:39:28.510Z,95827.25
2018-12-09T04:41:56.078Z,95868.59
2018-12-09T04:44:23.649Z,95855.52
2018-12-09T04:46:51.230Z,95855.14
2018-12-09T04:49:18.761Z,95867.17
2018-12-09T04:51:55.005Z,95872.43
2018-12-09T04:54:22.862Z,95886.75
2018-12-09T04:56:50.442Z,95874.34
2018-12-09T04:59:19.279Z,95882.25
2018-12-09T05:01:46.930Z,95899.75
2018-12-09T05:04:14.540Z,95903.88
2018-12-09T05:06:42.102Z,95905.84
2018-12-09T05:09:09.610Z,95909.50
2018-12-09T05:11:37.162Z,95926.80
2018-12-09T05:14:05.109Z,95945.17
2018-12-09T05:16:32.659Z,95925.26
2018-12-09T05:19:00.219Z,95934.81
2018-12-09T05:21:27.795Z,95948.19
2018-12-09T05:23:55.368Z,95959.34
2018-12-09T05:26:23.242Z,95950.52
2018-12-09T05:28:50.783Z,95949.81
2018-12-09T05:31:18.373Z,95963.06
2018-12-09T05:33:45.986Z,95954.41
2018-12-09T05:36:13.535Z,95955.24
2018-12-09T05:38:41.525Z,95947.45
2018-12-09T05:41:09.080Z,95965.33
2018-12-09T05:43:36.638Z,95965.67
2018-12-09T05:46:04.195Z,95960.50
2018-12-09T05:48:31.753Z,95966.00
2018-12-09T05:50:59.841Z,95970.83
2018-12-09T05:53:27.393Z,95962.54
2018-12-09T05:55:54.946Z,95968.00
2018-12-09T05:58:24.496Z,95967.16
2018-12-09T06:00:52.060Z,95946.00
2018-12-09T06:03:20.097Z,95971.84
2018-12-09T06:05:47.613Z,95954.34
2018-12-09T06:08:15.195Z,95956.55
2018-12-09T06:10:42.721Z,95952.34
2018-12-09T06:13:10.318Z,95952.25
2018-12-09T06:15:37.869Z,95957.51
2018-12-09T06:18:05.423Z,95951.42
2018-12-09T06:20:33.126Z,95960.09
2018-12-09T06:23:00.716Z,95961.72
2018-12-09T06:25:28.279Z,95954.02
2018-12-09T06:27:55.854Z,95962.36
2018-12-09T06:30:23.381Z,95966.43
2018-12-09T06:32:50.974Z,95988.94
2018-12-09T06:35:18.521Z,95999.03
2018-12-09T06:37:46.055Z,95997.08
2018-12-09T06:40:13.595Z,96010.37
2018-12-09T06:42:41.137Z,96008.79
2018-12-09T06:45:08.701Z,95991.28
2018-12-09T06:47:36.215Z,96002.45
2018-12-09T06:50:04.248Z,96000.45
2018-12-09T06:52:31.795Z,96007.61
2018-12-09T06:54:59.355Z,96009.93
2018-12-09T06:57:26.899Z,96014.76
2018-12-09T06:59:54.555Z,95998.07
2018-12-09T07:02:22.121Z,96000.39
2018-12-09T07:04:49.656Z,96001.75
2018-12-09T07:07:17.182Z,95993.56
2018-12-09T07:09:44.770Z,96003.38
2018-12-09T07:12:13.946Z,96013.20
2018-12-09T07:14:41.534Z,96013.41
2018-12-09T07:17:09.113Z,96029.65
2018-12-09T07:19:39.607Z,96026.77
2018-12-09T07:22:07.190Z,96030.44
2018-12-09T07:24:34.705Z,96039.27
2018-12-09T07:27:02.285Z,96042.23
2018-12-09T07:29:29.831Z,96052.14
2018-12-09T07:31:57.389Z,96046.95
2018-12-09T07:34:25.023Z,96053.28
2018-12-09T07:36:54.392Z,96057.91
2018-12-09T07:39:22.498Z,96056.47
2018-12-09T07:41:50.067Z,96061.37
2018-12-09T07:44:17.638Z,96073.64
2018-12-09T07:46:45.164Z,96071.93
2018-12-09T07:49:12.729Z,96089.42
2018-12-09T07:51:40.314Z,96089.98
2018-12-09T07:54:07.869Z,96093.55
2018-12-09T07:56:35.910Z,96087.11
2018-12-09T07:59:03.562Z,96100.08
2018-12-09T08:01:31.114Z,96105.13
2018-12-09T08:03:58.630Z,96103.09
2018-12-09T08:06:26.146Z,96111.94
2018-12-09T08:08:53.742Z,96125.79
2018-12-09T08:11:21.303Z,96146.67
2018-12-09T08:13:48.836Z,96139.77
2018-12-09T08:16:16.372Z,96164.85
2018-12-09T08:18:43.948Z,96165.54
2018-12-09T08:21:11.479Z,96149.43
2018-12-09T08:23:39.022Z,96146.65
2018-12-09T08:26:06.564Z,96063.33
2018-12-09T08:28:34.741Z,96159.53
2018-12-09T08:31:02.339Z,96170.95
2018-12-09T08:33:29.975Z,96173.25
2018-12-09T08:35:57.595Z,96180.58
2018-12-09T08:38:25.179Z,96196.70
2018-12-09T08:40:52.708Z,96198.05
2018-12-09T08:43:20.234Z,96209.09
2018-12-09T08:45:47.827Z,96206.37
2018-12-09T08:48:15.352Z,96193.23
2018-12-09T08:50:42.927Z,96201.37
2018-12-09T08:53:10.437Z,96196.28
2018-12-09T08:55:37.936Z,96207.91
2018-12-09T08:58:05.549Z,96206.84
2018-12-09T09:00:33.110Z,96206.27
2018-12-09T09:03:00.759Z,96199.63
2018-12-09T09:05:28.323Z,96197.23
2018-12-09T09:07:55.930Z,96187.34
2018-12-09T09:10:23.563Z,96190.33
2018-12-09T09:12:51.216Z,96197.17
2018-12-09T09:15:18.767Z,96207.34
2018-12-09T09:17:46.301Z,96211.30
2018-12-09T09:20:13.896Z,96219.09
2018-12-09T09:22:41.462Z,96228.03
2018-12-09T09:25:09.030Z,96230.41
2018-12-09T09:27:36.619Z,96227.14
2018-12-09T09:30:05.376Z,96226.28
2018-12-09T09:32:32.991Z,96231.19
2018-12-09T09:35:00.558Z,96234.16
2018-12-09T09:37:28.126Z,96244.53
2018-12-09T09:39:55.792Z,96246.06
2018-12-09T09:42:23.403Z,96250.20
2018-12-09T09:44:51.661Z,96262.88
2018-12-09T09:47:19.244Z,96252.52
2018-12-09T09:49:46.871Z,96249.05
2018-12-09T09:52:14.431Z,96242.14
2018-12-09T09:54:41.991Z,96242.80
2018-12-09T09:57:09.646Z,96243.67
2018-12-09T09:59:47.293Z,96245.67
2018-12-09T10:02:14.841Z,96237.30
2018-12-09T10:04:42.401Z,96240.58
2018-12-09T10:07:09.954Z,96242.95
2018-12-09T10:09:37.549Z,96244.20
2018-12-09T10:12:05.115Z,96249.89
2018-12-09T10:14:32.661Z,96243.05
2018-12-09T10:17:00.233Z,96235.26
2018-12-09T10:19:27.792Z,96250.45
2018-12-09T10:21:55.345Z,96231.28
2018-12-09T10:24:23.059Z,96237.44
2018-12-09T10:26:50.615Z,96236.78
2018-12-09T10:29:18.222Z,96234.75
2018-12-09T10:31:45.803Z,96225.30
2018-12-09T10:34:13.338Z,96238.55
2018-12-09T10:36:40.961Z,96231.44
2018-12-09T10:39:08.535Z,96232.48
2018-12-09T10:41:36.090Z,96224.83
2018-12-09T10:44:03.632Z,96210.41
2018-12-09T10:46:31.179Z,96229.36
2018-12-09T10:48:58.724Z,96252.63
2018-12-09T10:51:26.286Z,96238.20
2018-12-09T10:53:53.886Z,96240.02
2018-12-09T10:56:21.403Z,96223.55
2018-12-09T10:58:48.947Z,96229.39
2018-12-09T11:01:21.961Z,96236.72
2018-12-09T11:03:50.731Z,96225.28
2018-12-09T11:06:18.590Z,96237.89
2018-12-09T11:08:46.122Z,96244.95
2018-12-09T11:11:13.649Z,96235.16
2018-12-09T11:13:41.207Z,96238.64
2018-12-09T11:16:08.802Z,96242.61
2018-12-09T11:18:36.368Z,96243.19
2018-12-09T11:21:03.913Z,96255.23
2018-12-09T11:23:31.488Z,96262.95
2018-12-09T11:25:59.016Z,96237.86
2018-12-09T11:28:26.600Z,96237.52
2018-12-09T11:30:54.150Z,96238.45
2018-12-09T11:33:22.342Z,96243.77
2018-12-09T11:35:49.948Z,96233.48
2018-12-09T11:38:17.541Z,96221.95
2018-12-09T11:40:45.137Z,96232.80
2018-12-09T11:43:12.751Z,96180.47
2018-12-09T11:45:40.400Z,96225.61
2018-12-09T11:48:08.028Z,96226.27
2018-12-09T11:50:35.600Z,96215.33
2018-12-09T11:53:03.146Z,96229.34
2018-12-09T11:55:30.645Z,96212.45
2018-12-09T11:57:58.259Z,96216.09
2018-12-09T12:00:25.826Z,96197.86
2018-12-09T12:02:53.336Z,96191.02
2018-12-09T12:05:20.935Z,96196.77
2018-12-09T12:07:48.511Z,96187.56
2018-12-09T12:10:16.064Z,96186.59
2018-12-09T12:12:43.632Z,96185.94
2018-12-09T12:15:11.193Z,96185.16
2018-12-09T12:17:38.763Z,96191.41
2018-12-09T12:20:07.793Z,96186.78
2018-12-09T12:22:35.349Z,96182.00
2018-12-09T12:25:02.890Z,96174.78
2018-12-09T12:27:30.428Z,96180.34
2018-12-09T12:29:58.020Z,96181.47
2018-12-09T12:32:25.988Z,96189.66
2018-12-09T12:34:53.568Z,96193.59
2018-12-09T12:37:21.903Z,96182.22
2018-12-09T12:39:49.445Z,96187.43
2018-12-09T12:42:17.070Z,96194.05
2018-12-09T12:44:44.647Z,96193.86
2018-12-09T12:47:12.227Z,96207.34
2018-12-09T12:49:39.775Z,96209.62
2018-12-09T12:52:07.325Z,96204.71
2018-12-09T12:54:34.863Z,96195.87
2018-12-09T12:57:02.494Z,96199.14
2018-12-09T12:59:30.170Z,96188.09
2018-12-09T13:01:57.720Z,96201.74
2018-12-09T13:04:25.316Z,96207.21
2018-12-09T13:06:52.888Z,96206.92
2018-12-09T13:09:20.434Z,96201.74
2018-12-09T13:11:48.016Z,96186.66
2018-12-09T13:14:15.621Z,96203.18
2018-12-09T13:16:43.162Z,96184.47
2018-12-09T13:19:10.740Z,96179.16
2018-12-09T13:21:38.308Z,96182.16
2018-12-09T13:24:05.878Z,96187.94
2018-12-09T13:26:33.453Z,96188.41
2018-12-09T13:29:00.989Z,96194.09
2018-12-09T13:31:28.548Z,96183.22
2018-12-09T13:33:56.092Z,96197.27
2018-12-09T13:36:23.615Z,96190.94
2018-12-09T13:38:51.228Z,96191.12
2018-12-09T13:41:18.787Z,96193.61
2018-12-09T13:43:46.350Z,96201.80
2018-12-09T13:46:14.000Z,96200.14
2018-12-09T13:48:41.581Z,96194.30
2018-12-09T13:51:09.343Z,96198.05
2018-12-09T13:53:36.909Z,96201.61
2018-12-09T13:56:04.440Z,96206.88
2018-12-09T13:58:32.088Z,96204.76
2018-12-09T14:00:59.671Z,96220.72
2018-12-09T14:03:27.235Z,96211.78
2018-12-09T14:05:54.833Z,96214.56
2018-12-09T14:08:22.413Z,96211.97
2018-12-09T14:10:49.975Z,96211.50
2018-12-09T14:13:17.549Z,96214.56
2018-12-09T14:15:45.125Z,96223.22
2018-12-09T14:18:12.770Z,96220.53
2018-12-09T14:20:40.323Z,96221.20
2018-12-09T14:23:08.068Z,96228.78
2018-12-09T14:25:35.635Z,96231.19
2018-12-09T14:28:03.174Z,96236.28
2018-12-09T14:30:30.900Z,96239.66
2018-12-09T14:32:58.469Z,96230.03
2018-12-09T14:35:26.008Z,96223.70
2018-12-09T14:37:53.543Z,96219.17
2018-12-09T14:40:21.210Z,96223.02
2018-12-09T14:42:48.814Z,96231.07
2018-12-09T14:45:16.419Z,96223.58
2018-12-09T14:47:43.983Z,96221.77
2018-12-09T14:50:11.552Z,96218.95
2018-12-09T14:52:39.118Z,96215.11
2018-12-09T14:55:06.755Z,96224.83
2018-12-09T14:57:34.321Z,96243.67
2018-12-09T15:00:01.961Z,96222.23
2018-12-09T15:02:29.575Z,96234.83
2018-12-09T15:04:57.131Z,96230.30
2018-12-09T15:07:24.710Z,96233.48
2018-12-09T15:09:52.496Z,96237.70
2018-12-09T15:12:20.313Z,96229.83
2018-12-09T15:14:47.864Z,96233.11
2018-12-09T15:17:15.458Z,96236.58
2018-12-09T15:19:42.975Z,96247.04
2018-12-09T15:22:10.552Z,96239.91
2018-12-09T15:24:41.563Z,96254.44
2018-12-09T15:27:08.261Z,96254.91
2018-12-09T15:29:35.888Z,96250.78
2018-12-09T15:32:03.446Z,96254.26
2018-12-09T15:34:30.998Z,96270.49
2018-12-09T15:36:58.581Z,96262.33
2018-12-09T15:39:26.192Z,96269.91
2018-12-09T15:41:53.828Z,96270.68
2018-12-09T15:44:21.449Z,96263.36
2018-12-09T15:46:49.061Z,96280.38
2018-12-09T15:49:16.716Z,96271.34
2018-12-09T15:51:44.247Z,96269.80
2018-12-09T15:54:11.935Z,96276.44
2018-12-09T15:56:39.501Z,96286.80
2018-12-09T15:59:07.069Z,96288.31
2018-12-09T16:01:34.665Z,96274.79
2018-12-09T16:04:02.225Z,96312.99
2018-12-09T16:06:29.797Z,96284.08
2018-12-09T16:08:57.316Z,96286.98
2018-12-09T16:11:24.880Z,96288.60
2018-12-09T16:13:52.426Z,96290.83
2018-12-09T16:16:20.002Z,96293.87
2018-12-09T16:18:47.548Z,96288.42
2018-12-09T16:21:15.115Z,96291.49
2018-12-09T16:23:42.665Z,96294.19
2018-12-09T16:26:10.244Z,96291.49
2018-12-09T16:28:37.779Z,96295.92
2018-12-09T16:31:05.315Z,96284.48
2018-12-09T16:33:32.930Z,96286.69
2018-12-09T16:36:00.514Z,96281.97
2018-12-09T16:38:28.069Z,96290.13
2018-12-09T16:40:55.592Z,96299.14
2018-12-09T16:43:23.146Z,96290.13
2018-12-09T16:45:50.713Z,96296.37
2018-12-09T16:48:18.325Z,96292.73
2018-12-09T16:50:45.868Z,96291.84
2018-12-09T16:53:13.445Z,96302.72
2018-12-09T16:55:40.989Z,96305.21
2018-12-09T16:58:08.509Z,96327.67
2018-12-09T17:00:36.068Z,96322.28
2018-12-09T17:03:03.631Z,96324.58
2018-12-09T17:05:31.176Z,96324.11
2018-12-09T17:07:58.707Z,96331.59
2018-12-09T17:10:26.250Z,96332.38
2018-12-09T17:12:53.811Z,96328.89
2018-12-09T17:15:21.372Z,96336.02
2018-12-09T17:17:48.921Z,96335.30
2018-12-09T17:20:16.464Z,96341.45
2018-12-09T17:22:44.015Z,96346.27
2018-12-09T17:25:11.582Z,96359.53
2018-12-09T17:27:39.123Z,96353.66
2018-12-09T17:30:07.054Z,96361.72
2018-12-09T17:32:34.657Z,96363.91
2018-12-09T17:35:02.234Z,96363.34
2018-12-09T17:37:29.809Z,96355.64
2018-12-09T17:39:57.351Z,96369.64
2018-12-09T17:42:24.901Z,96374.05
2018-12-09T17:44:52.444Z,96382.48
2018-12-09T17:47:20.039Z,96391.88
2018-12-09T17:49:47.560Z,96389.86
2018-12-09T17:52:15.158Z,96382.75
2018-12-09T17:54:42.830Z,96388.52
2018-12-09T17:57:10.378Z,96382.94
2018-12-09T17:59:37.949Z,96391.78
2018-12-09T18:02:05.704Z,96398.23
2018-12-09T18:04:33.272Z,96402.45
2018-12-09T18:07:00.849Z,96395.73
2018-12-09T18:09:28.400Z,96398.86
2018-12-09T18:11:56.046Z,96397.62
2018-12-09T18:14:23.675Z,96408.84
2018-12-09T18:16:51.235Z,96407.39
2018-12-09T18:19:18.825Z,96415.91
2018-12-09T18:21:46.410Z,96422.55
2018-12-09T18:24:14.024Z,96424.34
2018-12-09T18:26:41.608Z,96424.95
2018-12-09T18:29:09.130Z,96432.91
2018-12-09T18:31:36.710Z,96438.48
2018-12-09T18:34:04.229Z,96445.38
2018-12-09T18:36:31.806Z,96455.37
2018-12-09T18:38:59.369Z,96465.82
2018-12-09T18:41:26.899Z,96479.76
2018-12-09T18:43:54.416Z,96489.48
2018-12-09T18:46:21.943Z,96490.72
2018-12-09T18:48:49.470Z,96492.66
2018-12-09T18:51:17.036Z,96502.02
2018-12-09T18:53:44.636Z,96513.45
2018-12-09T18:56:12.267Z,96513.34
2018-12-09T18:58:39.895Z,96517.20
2018-12-09T19:01:07.466Z,96518.15
2018-12-09T19:03:35.059Z,96534.48
2018-12-09T19:06:02.610Z,96525.64
2018-12-09T19:08:30.158Z,96534.11
2018-12-09T19:10:57.760Z,96539.66
2018-12-09T19:13:25.346Z,96536.87
2018-12-09T19:15:52.899Z,96547.36
2018-12-09T19:18:20.456Z,96554.08
2018-12-09T19:20:48.160Z,96552.56
2018-12-09T19:23:15.737Z,96558.41
2018-12-09T19:25:43.401Z,96572.43
2018-12-09T19:28:10.953Z,96578.01
2018-12-09T19:30:38.473Z,96578.89
2018-12-09T19:33:05.956Z,96578.59
2018-12-09T19:35:33.631Z,96582.62
2018-12-09T19:38:01.395Z,96584.47
2018-12-09T19:40:28.991Z,96593.67
2018-12-09T19:42:56.575Z,96598.52
2018-12-09T19:45:24.109Z,96601.70
2018-12-09T19:47:51.737Z,96608.94
2018-12-09T19:50:19.409Z,96608.94
2018-12-09T19:52:46.972Z,96625.64
2018-12-09T19:55:14.511Z,96633.02
2018-12-09T19:57:42.068Z,96649.03
2018-12-09T20:00:09.662Z,96650.58
2018-12-09T20:02:37.222Z,96649.55
2018-12-09T20:05:06.491Z,96647.05
2018-12-09T20:07:34.034Z,96660.45
2018-12-09T20:10:01.595Z,96667.22
2018-12-09T20:12:29.178Z,96683.22
2018-12-09T20:14:58.460Z,96688.77
2018-12-09T20:17:26.027Z,96675.80
2018-12-09T20:19:53.557Z,96679.84
2018-12-09T20:22:21.080Z,96673.93
2018-12-09T20:24:48.649Z,96676.91
2018-12-09T20:27:16.330Z,96689.05
2018-12-09T20:29:43.961Z,96684.97
2018-12-09T20:32:11.535Z,96692.13
2018-12-09T20:34:39.058Z,96702.50
2018-12-09T20:37:06.603Z,96699.60
2018-12-09T20:39:34.212Z,96703.86
2018-12-09T20:42:01.769Z,96711.48
2018-12-09T20:44:29.299Z,96706.61
2018-12-09T20:46:56.958Z,96714.49
2018-12-09T20:49:24.501Z,96726.48
2018-12-09T20:51:52.170Z,96722.73
2018-12-09T20:54:19.699Z,96735.33
2018-12-09T20:56:47.221Z,96741.81
2018-12-09T20:59:14.798Z,96750.55
2018-12-09T21:01:42.323Z,96763.20
2018-12-09T21:04:09.859Z,96761.06
2018-12-09T21:06:37.390Z,96770.28
2018-12-09T21:09:05.984Z,96772.66
2018-12-09T21:11:33.703Z,96773.91
2018-12-09T21:14:01.219Z,96773.17
2018-12-09T21:16:28.746Z,96784.88
2018-12-09T21:18:56.295Z,96787.74
2018-12-09T21:21:23.859Z,96794.86
2018-12-09T21:23:51.398Z,96801.70
2018-12-09T21:26:18.927Z,96808.92
2018-12-09T21:28:46.440Z,96814.66
2018-12-09T21:31:13.981Z,96822.86
2018-12-09T21:33:41.545Z,96822.61
2018-12-09T21:36:09.111Z,96837.58
2018-12-09T21:38:36.951Z,96842.94
2018-12-09T21:41:04.482Z,96850.31
2018-12-09T21:43:32.825Z,96843.47
2018-12-09T21:46:00.340Z,96841.34
2018-12-09T21:48:27.870Z,96844.84
2018-12-09T21:50:55.393Z,96851.92
2018-12-09T21:53:22.951Z,96846.56
2018-12-09T21:55:50.480Z,96847.68
2018-12-09T21:58:18.001Z,96848.81
2018-12-09T22:00:45.506Z,96854.28
2018-12-09T22:03:13.013Z,96863.13
2018-12-09T22:05:40.507Z,96875.73
2018-12-09T22:08:07.997Z,96871.73
2018-12-09T22:10:35.507Z,96876.95
2018-12-09T22:13:02.997Z,96878.09
2018-12-09T22:15:30.491Z,96884.44
2018-12-09T22:17:58.027Z,96887.42
2018-12-09T22:20:25.524Z,96891.03
2018-12-09T22:22:53.022Z,96895.38
2018-12-09T22:25:20.511Z,96899.23
2018-12-09T22:27:48.008Z,96899.23
2018-12-09T22:30:15.509Z,96734.55
2018-12-09T22:32:43.022Z,96917.35
2018-12-09T22:35:10.522Z,96922.46
2018-12-09T22:37:38.030Z,96922.06
2018-12-09T22:40:06.117Z,96929.42
2018-12-09T22:42:33.651Z,96931.68
2018-12-09T22:45:01.162Z,96940.53
2018-12-09T22:47:28.654Z,96939.41
2018-12-09T22:49:56.146Z,96938.27
2018-12-09T22:52:23.656Z,96940.65
2018-12-09T22:54:51.143Z,96946.52
2018-12-09T22:57:18.646Z,96936.31
2018-12-09T22:59:46.228Z,96938.80
2018-12-09T23:02:19.319Z,96949.27
2018-12-09T23:04:46.880Z,96950.27
2018-12-09T23:07:20.078Z,96944.52
2018-12-09T23:09:47.587Z,96957.17
2018-12-09T23:12:15.084Z,96956.17
2018-12-09T23:14:42.598Z,96959.80
2018-12-09T23:17:10.104Z,96967.16
2018-12-09T23:19:37.630Z,96969.78
2018-12-09T23:22:05.117Z,96974.90
2018-12-09T23:24:32.611Z,96974.90
2018-12-09T23:27:00.125Z,96982.14
2018-12-09T23:29:27.724Z,96979.89
2018-12-09T23:31:55.278Z,96986.77
2018-12-09T23:34:22.770Z,96983.02
2018-12-09T23:36:50.326Z,96995.50
2018-12-09T23:39:17.834Z,96994.14
2018-12-09T23:41:45.352Z,97001.22
2018-12-09T23:44:12.876Z,97012.81
2018-12-09T23:46:40.365Z,97002.95
2018-12-09T23:49:07.894Z,97013.70
2018-12-09T23:51:35.413Z,97015.31
2018-12-09T23:54:02.910Z,97019.57
2018-12-09T23:56:30.408Z,97025.16
2018-12-09T23:58:57.900Z,97032.53
